»·PEaware :: N1507M P52-E68

N1507M :: P52-E68

FLIGHT INFORMATION

Flight Status: Arrived
Operator: Privately registered:
United States
More flights under this callsign
Pilot: Matthew M. (8235)
Aircraft: CIRRUS VISIONJET
(SF50)
More flights by this aircraft type
Origin: P52 Cottonwood
United States
Destination: E68 Estrella Sailport
United States
More flights between these airports :: More routes between these airports
Route:
File this flight plan on PilotEdge
Remarks:
Altitude:
(Current/Filed)
10,500ft
Speed:
(Current/Filed)
250kts
Departed: 01-Oct-20 02:25 PM
Arrived: 01-Oct-20 02:54 PM
Distance/Time
Traveled:
99nm/0:29
Distance/Time
To Go:
Arrived

Flight Plot

Page will automatically refresh every two minutes.

Flight plan parsing failed; only flown route is shown


Map Options




Map Legend


Flown Route
Filed Route
Departure Airport
Arrival Airport
Navaid (VOR, NDB)
Fix

Horizontal Profiles

Position Reports

Time Latitude Longitude Heading Altitude Ground
Speed
01-Oct-20 14:16 34.733512 -112.038436 64 3536ft 0kts
01-Oct-20 14:17 34.733512 -112.038436 64 3536ft 0kts
01-Oct-20 14:18 34.733512 -112.038436 64 3536ft 0kts
01-Oct-20 14:19 34.733512 -112.038436 64 3536ft 0kts
01-Oct-20 14:20 34.733512 -112.038436 64 3536ft 0kts
01-Oct-20 14:21 34.733512 -112.038436 64 3536ft 0kts
01-Oct-20 14:22 34.733512 -112.038436 64 3536ft 0kts
01-Oct-20 14:23 34.734475 -112.038460 333 3525ft 22kts
01-Oct-20 14:24 34.725193 -112.034151 188 4006ft 93kts
01-Oct-20 14:25 34.693586 -112.040422 184 6022ft 154kts
01-Oct-20 14:26 34.639043 -112.045458 182 7908ft 232kts
01-Oct-20 14:27 34.573108 -112.050562 183 10058ft 233kts
01-Oct-20 14:28 34.505775 -112.055660 182 11525ft 241kts
01-Oct-20 14:29 34.439703 -112.060636 182 11524ft 237kts
01-Oct-20 14:30 34.373041 -112.065651 182 11525ft 238kts
01-Oct-20 14:31 34.306579 -112.070643 182 11526ft 238kts
01-Oct-20 14:32 34.240131 -112.075637 182 11527ft 238kts
01-Oct-20 14:33 34.173514 -112.080624 183 11429ft 238kts
01-Oct-20 14:34 34.107008 -112.085594 183 11316ft 239kts
01-Oct-20 14:35 34.040726 -112.090541 183 11253ft 239kts
01-Oct-20 14:36 33.973895 -112.095521 183 11253ft 239kts
01-Oct-20 14:37 33.906997 -112.100498 183 11253ft 239kts
01-Oct-20 14:38 33.840297 -112.105438 183 11252ft 239kts
01-Oct-20 14:39 33.773199 -112.110421 182 11251ft 243kts
01-Oct-20 14:40 33.705082 -112.115453 182 11251ft 243kts
01-Oct-20 14:41 33.637087 -112.120483 182 11251ft 243kts
01-Oct-20 14:42 33.569065 -112.125502 182 11248ft 243kts
01-Oct-20 14:43 33.500812 -112.130532 182 11237ft 243kts
01-Oct-20 14:44 33.432899 -112.135531 182 10989ft 238kts
01-Oct-20 14:45 33.366842 -112.140383 182 10485ft 235kts
01-Oct-20 14:46 33.301485 -112.145177 182 9982ft 233kts
01-Oct-20 14:47 33.237028 -112.149901 182 9482ft 230kts
01-Oct-20 14:48 33.177447 -112.154211 183 8104ft 200kts
01-Oct-20 14:49 33.123381 -112.158201 184 6277ft 190kts
01-Oct-20 14:50 33.072088 -112.162009 184 4342ft 198kts
01-Oct-20 14:51 33.059482 -112.195834 353 3269ft 124kts
01-Oct-20 14:52 33.080802 -112.178934 70 1766ft 82kts
01-Oct-20 14:53 33.085443 -112.160197 139 1267ft 7kts
01-Oct-20 14:54 33.085151 -112.160572 230 1267ft 0kts
01-Oct-20 14:55 33.085117 -112.160622 230 1267ft 0kts
01-Oct-20 14:56 33.085082 -112.160671 230 1267ft 0kts
01-Oct-20 14:57 33.085056 -112.160717 253 1267ft 0kts
01-Oct-20 14:58 33.085056 -112.160717 253 1267ft 0kts
01-Oct-20 14:59 33.085056 -112.160717 253 1267ft 0kts
01-Oct-20 15:00 33.085056 -112.160717 253 1267ft 0kts
01-Oct-20 15:01 33.085056 -112.160717 253 1267ft 0kts
01-Oct-20 15:02 33.085056 -112.160717 253 1267ft 0kts
01-Oct-20 15:03 33.085056 -112.160717 253 1267ft 0kts
01-Oct-20 15:04 33.085056 -112.160717 253 1267ft 0kts
01-Oct-20 15:05 33.085056 -112.160717 253 1267ft 0kts
01-Oct-20 15:07 33.085056 -112.160717 253 1267ft 0kts
01-Oct-20 15:08 33.085056 -112.160717 253 1267ft 0kts

Navigation Log

Ident Type
Flight plan parsing failed, navigation log unavailable